Disclaimer

Please do not use the information listed here in-flight or in-navigation, as they are not provided to us by the airports but are provided by volunteers, so they might be outdated.

Search


Regions


Airport information page

Radio informations:
Tower (TWR) - 125.45 MHz

Airport informations:
Latitude: 48° 37' 30.89" N
Longitude: 017° 49' 42.40" E
Elevation: 545 feet - 166 meters
Operating hours: Remarks
Operating agency: Civil government, landing fees and diplomatic clearance may be required
Timezone: UTC+1(+2DT)
Fuel: Jet A1+, Jet A1 with icing inhibitor.

Aviation Gasoline (AVGAS), octane unknown.

Runway information:
01/19 - 6562 x 98 feet< - >2000 x 30 meters

Recent METARs:
LZPP 151630Z 36009KT CAVOK M01/M05 Q1020
LZPP 151700Z 01011KT CAVOK M01/M05 Q1020
LZPP 151730Z 36008KT CAVOK M01/M05 Q1020

Airport on the map: